Main page
METAR-TAF:

METAR-TAF

Airports :

Saint-Étienne–Bouthéon Airport

Saint-Etienne, France

latitude: 45-32N, longitude: 004-18E, elevation: 404 m

Current weather observation

The report was made 41 minutes ago, at 08:30 UTC
Wind 2 kt from variable directions
Temperature 14°C
Humidity 55%
Pressure 1018 hPa
Visibility 10 km or more
no clouds below 1500 m and no cumulonimbus

METAR: LFMH 180830Z AUTO VRB02KT CAVOK 14/05 Q1018 NOSIG

Time: 11:11 (09:11 UTC)

Forecast

The report was made 4 hours and 11 minutes ago, at 05:00 UTC
Forecast valid from 18 at 06 UTC to 19 at 06 UTC
Wind 3 kt from variable directions
Visibility 10 km or more
Broken clouds at a height of 4000 ft
Temporary
from 18 at 12 UTC to 18 at 17 UTC
Visibility: 5000 m
rain
Temporary
from 18 at 22 UTC to 19 at 06 UTC
Scattered clouds at a height of 3000 ft, Towering cumulus.
Broken clouds at a height of 4000 ft
light rain showers

TAF: LFMH 180500Z 1806/1906 VRB03KT 9999 BKN040 TEMPO 1812/1817 5000 RA TEMPO 1822/1906 -SHRA SCT030TCU BKN040

Weather observations and forecasts of more than 4000 airports (METAR and TAF reports).

The available stations are represented by yellow and red dots on the map.

Hover mouse over dot to see the name of the station.

Then click to see weather observations and forecasts.

To change the map : click on the green buttons with a black cross to zoom in, on the green button with a dash to zoom out, or on the green arrows for adjacent maps.


METAR-TAF: